sensor_id;sensor_type;location;lat;lon;timestamp;P1;durP1;ratioP1;P2;durP2;ratioP2
10283;SDS011;5187;52.378;9.018;2022-10-31T00:01:58;20.67;;;15.03;;
10283;SDS011;5187;52.378;9.018;2022-10-31T00:04:27;25.57;;;14.87;;
10283;SDS011;5187;52.378;9.018;2022-10-31T00:06:57;21.00;;;14.40;;
10283;SDS011;5187;52.378;9.018;2022-10-31T00:09:25;22.30;;;15.17;;
10283;SDS011;5187;52.378;9.018;2022-10-31T00:11:54;44.90;;;15.60;;
10283;SDS011;5187;52.378;9.018;2022-10-31T00:14:22;19.37;;;15.07;;
10283;SDS011;5187;52.378;9.018;2022-10-31T00:16:51;21.03;;;15.27;;
10283;SDS011;5187;52.378;9.018;2022-10-31T00:19:19;22.73;;;15.00;;
10283;SDS011;5187;52.378;9.018;2022-10-31T00:21:48;30.27;;;15.93;;
10283;SDS011;5187;52.378;9.018;2022-10-31T00:24:17;22.60;;;17.47;;
10283;SDS011;5187;52.378;9.018;2022-10-31T00:26:46;24.60;;;17.17;;
10283;SDS011;5187;52.378;9.018;2022-10-31T00:29:15;23.03;;;17.47;;
10283;SDS011;5187;52.378;9.018;2022-10-31T00:31:43;24.83;;;17.60;;
10283;SDS011;5187;52.378;9.018;2022-10-31T00:34:12;26.30;;;18.57;;
10283;SDS011;5187;52.378;9.018;2022-10-31T00:36:40;27.50;;;18.50;;
10283;SDS011;5187;52.378;9.018;2022-10-31T00:39:09;36.20;;;20.07;;
10283;SDS011;5187;52.378;9.018;2022-10-31T00:41:38;22.57;;;18.70;;
10283;SDS011;5187;52.378;9.018;2022-10-31T00:44:07;26.07;;;18.77;;
10283;SDS011;5187;52.378;9.018;2022-10-31T00:46:35;28.77;;;19.23;;
10283;SDS011;5187;52.378;9.018;2022-10-31T00:49:04;27.63;;;19.20;;
10283;SDS011;5187;52.378;9.018;2022-10-31T00:51:32;28.50;;;20.10;;
10283;SDS011;5187;52.378;9.018;2022-10-31T00:54:01;44.80;;;21.10;;
10283;SDS011;5187;52.378;9.018;2022-10-31T00:56:29;31.53;;;19.77;;
10283;SDS011;5187;52.378;9.018;2022-10-31T00:58:59;27.00;;;20.20;;
10283;SDS011;5187;52.378;9.018;2022-10-31T01:01:27;28.77;;;21.27;;
10283;SDS011;5187;52.378;9.018;2022-10-31T01:03:56;32.53;;;20.57;;
10283;SDS011;5187;52.378;9.018;2022-10-31T01:06:25;28.70;;;20.97;;
10283;SDS011;5187;52.378;9.018;2022-10-31T01:08:53;30.40;;;21.73;;
10283;SDS011;5187;52.378;9.018;2022-10-31T01:11:22;31.73;;;21.93;;
10283;SDS011;5187;52.378;9.018;2022-10-31T01:13:51;31.00;;;22.93;;
10283;SDS011;5187;52.378;9.018;2022-10-31T01:16:22;33.13;;;23.17;;
10283;SDS011;5187;52.378;9.018;2022-10-31T01:18:51;31.80;;;23.03;;
10283;SDS011;5187;52.378;9.018;2022-10-31T01:21:20;38.10;;;24.40;;
10283;SDS011;5187;52.378;9.018;2022-10-31T01:23:49;36.70;;;23.40;;
10283;SDS011;5187;52.378;9.018;2022-10-31T01:26:18;36.10;;;24.27;;
10283;SDS011;5187;52.378;9.018;2022-10-31T01:28:47;30.10;;;23.47;;
10283;SDS011;5187;52.378;9.018;2022-10-31T01:31:16;35.83;;;23.63;;
10283;SDS011;5187;52.378;9.018;2022-10-31T01:33:47;33.93;;;24.33;;
10283;SDS011;5187;52.378;9.018;2022-10-31T01:36:17;35.70;;;25.43;;
10283;SDS011;5187;52.378;9.018;2022-10-31T01:38:46;34.43;;;25.60;;
10283;SDS011;5187;52.378;9.018;2022-10-31T01:41:15;43.00;;;27.17;;
10283;SDS011;5187;52.378;9.018;2022-10-31T01:43:44;36.20;;;26.50;;
10283;SDS011;5187;52.378;9.018;2022-10-31T01:46:13;37.10;;;26.13;;
10283;SDS011;5187;52.378;9.018;2022-10-31T01:48:43;42.47;;;27.70;;
10283;SDS011;5187;52.378;9.018;2022-10-31T01:51:13;39.47;;;27.13;;
10283;SDS011;5187;52.378;9.018;2022-10-31T01:53:42;36.17;;;25.17;;
10283;SDS011;5187;52.378;9.018;2022-10-31T01:56:13;38.93;;;27.77;;
10283;SDS011;5187;52.378;9.018;2022-10-31T01:58:41;39.07;;;27.70;;
10283;SDS011;5187;52.378;9.018;2022-10-31T02:01:10;34.87;;;26.20;;
10283;SDS011;5187;52.378;9.018;2022-10-31T02:03:41;37.67;;;27.10;;
10283;SDS011;5187;52.378;9.018;2022-10-31T02:06:10;43.03;;;28.50;;
10283;SDS011;5187;52.378;9.018;2022-10-31T02:08:44;40.77;;;28.90;;
10283;SDS011;5187;52.378;9.018;2022-10-31T02:11:13;44.60;;;27.23;;
10283;SDS011;5187;52.378;9.018;2022-10-31T02:13:42;37.67;;;26.70;;
10283;SDS011;5187;52.378;9.018;2022-10-31T02:16:11;35.67;;;25.23;;
10283;SDS011;5187;52.378;9.018;2022-10-31T02:18:40;32.83;;;24.50;;
10283;SDS011;5187;52.378;9.018;2022-10-31T02:21:11;35.93;;;25.50;;
10283;SDS011;5187;52.378;9.018;2022-10-31T02:32:32;46.07;;;23.87;;
10283;SDS011;5187;52.378;9.018;2022-10-31T02:35:03;32.30;;;23.47;;
10283;SDS011;5187;52.378;9.018;2022-10-31T02:37:37;35.50;;;24.93;;
10283;SDS011;5187;52.378;9.018;2022-10-31T02:40:09;32.63;;;23.93;;
10283;SDS011;5187;52.378;9.018;2022-10-31T02:42:39;32.87;;;23.57;;
10283;SDS011;5187;52.378;9.018;2022-10-31T02:45:11;32.27;;;25.43;;
10283;SDS011;5187;52.378;9.018;2022-10-31T02:47:43;43.77;;;28.33;;
10283;SDS011;5187;52.378;9.018;2022-10-31T02:50:14;43.27;;;27.87;;
10283;SDS011;5187;52.378;9.018;2022-10-31T02:52:49;62.70;;;20.33;;
10283;SDS011;5187;52.378;9.018;2022-10-31T02:58:06;28.63;;;23.47;;
10283;SDS011;5187;52.378;9.018;2022-10-31T03:00:37;40.57;;;26.73;;
10283;SDS011;5187;52.378;9.018;2022-10-31T03:03:10;39.93;;;29.03;;
10283;SDS011;5187;52.378;9.018;2022-10-31T03:05:45;45.47;;;29.00;;
10283;SDS011;5187;52.378;9.018;2022-10-31T03:08:21;49.40;;;31.63;;
10283;SDS011;5187;52.378;9.018;2022-10-31T03:10:52;48.20;;;32.00;;
10283;SDS011;5187;52.378;9.018;2022-10-31T03:13:23;50.87;;;31.43;;
10283;SDS011;5187;52.378;9.018;2022-10-31T03:15:54;53.77;;;33.20;;
10283;SDS011;5187;52.378;9.018;2022-10-31T03:18:27;51.17;;;32.27;;
10283;SDS011;5187;52.378;9.018;2022-10-31T03:20:57;49.17;;;32.23;;
10283;SDS011;5187;52.378;9.018;2022-10-31T03:23:27;46.40;;;30.17;;
10283;SDS011;5187;52.378;9.018;2022-10-31T03:25:56;37.70;;;27.27;;
10283;SDS011;5187;52.378;9.018;2022-10-31T03:28:27;36.27;;;26.07;;
10283;SDS011;5187;52.378;9.018;2022-10-31T03:30:56;38.80;;;26.27;;
10283;SDS011;5187;52.378;9.018;2022-10-31T03:33:33;42.13;;;25.57;;
10283;SDS011;5187;52.378;9.018;2022-10-31T03:36:03;41.30;;;25.60;;
10283;SDS011;5187;52.378;9.018;2022-10-31T03:38:33;52.60;;;24.40;;
10283;SDS011;5187;52.378;9.018;2022-10-31T03:41:03;36.03;;;25.80;;
10283;SDS011;5187;52.378;9.018;2022-10-31T03:43:32;40.30;;;26.50;;
10283;SDS011;5187;52.378;9.018;2022-10-31T03:46:01;39.30;;;25.77;;
10283;SDS011;5187;52.378;9.018;2022-10-31T03:48:31;41.30;;;25.60;;
10283;SDS011;5187;52.378;9.018;2022-10-31T03:51:01;38.90;;;26.17;;
10283;SDS011;5187;52.378;9.018;2022-10-31T03:53:34;39.03;;;26.60;;
10283;SDS011;5187;52.378;9.018;2022-10-31T03:56:07;41.87;;;25.77;;
10283;SDS011;5187;52.378;9.018;2022-10-31T03:58:38;32.07;;;24.00;;
10283;SDS011;5187;52.378;9.018;2022-10-31T04:01:09;34.27;;;23.73;;
10283;SDS011;5187;52.378;9.018;2022-10-31T04:03:41;35.03;;;24.43;;
10283;SDS011;5187;52.378;9.018;2022-10-31T04:06:10;34.27;;;23.97;;
10283;SDS011;5187;52.378;9.018;2022-10-31T04:08:42;29.20;;;21.50;;
10283;SDS011;5187;52.378;9.018;2022-10-31T04:11:12;26.00;;;21.00;;
10283;SDS011;5187;52.378;9.018;2022-10-31T04:13:41;31.10;;;19.83;;
10283;SDS011;5187;52.378;9.018;2022-10-31T04:16:12;26.03;;;20.23;;
10283;SDS011;5187;52.378;9.018;2022-10-31T04:18:44;26.17;;;19.93;;
10283;SDS011;5187;52.378;9.018;2022-10-31T04:21:12;28.60;;;22.40;;
10283;SDS011;5187;52.378;9.018;2022-10-31T04:23:41;27.50;;;21.20;;
10283;SDS011;5187;52.378;9.018;2022-10-31T04:26:09;25.47;;;20.37;;
10283;SDS011;5187;52.378;9.018;2022-10-31T04:28:39;29.43;;;20.63;;
10283;SDS011;5187;52.378;9.018;2022-10-31T04:31:08;30.73;;;20.60;;
10283;SDS011;5187;52.378;9.018;2022-10-31T04:33:37;27.37;;;20.27;;
10283;SDS011;5187;52.378;9.018;2022-10-31T04:36:07;28.50;;;20.80;;
10283;SDS011;5187;52.378;9.018;2022-10-31T04:38:35;23.40;;;19.13;;
10283;SDS011;5187;52.378;9.018;2022-10-31T04:41:04;53.27;;;20.97;;
10283;SDS011;5187;52.378;9.018;2022-10-31T04:43:32;32.93;;;23.30;;
10283;SDS011;5187;52.378;9.018;2022-10-31T04:46:01;29.70;;;20.73;;
10283;SDS011;5187;52.378;9.018;2022-10-31T04:48:29;23.80;;;18.97;;
10283;SDS011;5187;52.378;9.018;2022-10-31T04:50:58;25.87;;;20.50;;
10283;SDS011;5187;52.378;9.018;2022-10-31T04:53:28;23.67;;;19.07;;
10283;SDS011;5187;52.378;9.018;2022-10-31T04:55:57;22.73;;;18.70;;
10283;SDS011;5187;52.378;9.018;2022-10-31T04:58:27;23.03;;;18.77;;
10283;SDS011;5187;52.378;9.018;2022-10-31T05:00:56;24.30;;;18.17;;
10283;SDS011;5187;52.378;9.018;2022-10-31T05:03:24;29.87;;;17.03;;
10283;SDS011;5187;52.378;9.018;2022-10-31T05:05:53;22.73;;;17.67;;
10283;SDS011;5187;52.378;9.018;2022-10-31T05:08:21;26.33;;;19.97;;
10283;SDS011;5187;52.378;9.018;2022-10-31T05:10:51;26.03;;;21.87;;
10283;SDS011;5187;52.378;9.018;2022-10-31T05:13:19;28.13;;;20.67;;
10283;SDS011;5187;52.378;9.018;2022-10-31T05:15:49;57.60;;;20.47;;
10283;SDS011;5187;52.378;9.018;2022-10-31T05:18:17;21.60;;;18.87;;
10283;SDS011;5187;52.378;9.018;2022-10-31T05:20:46;21.30;;;18.10;;
10283;SDS011;5187;52.378;9.018;2022-10-31T05:23:14;20.73;;;18.13;;
10283;SDS011;5187;52.378;9.018;2022-10-31T05:25:43;24.97;;;19.97;;
10283;SDS011;5187;52.378;9.018;2022-10-31T05:28:12;29.60;;;18.10;;
10283;SDS011;5187;52.378;9.018;2022-10-31T05:30:41;20.23;;;18.07;;
10283;SDS011;5187;52.378;9.018;2022-10-31T05:33:09;22.10;;;17.77;;
10283;SDS011;5187;52.378;9.018;2022-10-31T05:35:38;29.07;;;19.90;;
10283;SDS011;5187;52.378;9.018;2022-10-31T05:38:06;21.97;;;19.33;;
10283;SDS011;5187;52.378;9.018;2022-10-31T05:40:35;39.07;;;18.50;;
10283;SDS011;5187;52.378;9.018;2022-10-31T05:43:03;63.07;;;19.33;;
10283;SDS011;5187;52.378;9.018;2022-10-31T05:45:33;48.33;;;20.00;;
10283;SDS011;5187;52.378;9.018;2022-10-31T05:48:02;96.30;;;21.20;;
10283;SDS011;5187;52.378;9.018;2022-10-31T05:50:31;25.33;;;17.83;;
10283;SDS011;5187;52.378;9.018;2022-10-31T05:53:00;22.23;;;16.30;;
10283;SDS011;5187;52.378;9.018;2022-10-31T05:55:29;20.63;;;17.10;;
10283;SDS011;5187;52.378;9.018;2022-10-31T05:57:58;19.73;;;17.43;;
10283;SDS011;5187;52.378;9.018;2022-10-31T06:00:27;23.20;;;18.07;;
10283;SDS011;5187;52.378;9.018;2022-10-31T06:03:00;22.20;;;17.20;;
10283;SDS011;5187;52.378;9.018;2022-10-31T06:05:29;21.67;;;16.50;;
10283;SDS011;5187;52.378;9.018;2022-10-31T06:07:58;18.93;;;16.23;;
10283;SDS011;5187;52.378;9.018;2022-10-31T06:10:27;19.87;;;15.53;;
10283;SDS011;5187;52.378;9.018;2022-10-31T06:12:55;36.60;;;21.17;;
10283;SDS011;5187;52.378;9.018;2022-10-31T06:15:24;53.03;;;21.70;;
10283;SDS011;5187;52.378;9.018;2022-10-31T06:18:01;34.20;;;18.57;;
10283;SDS011;5187;52.378;9.018;2022-10-31T06:20:30;22.03;;;17.53;;
10283;SDS011;5187;52.378;9.018;2022-10-31T06:22:58;24.03;;;16.80;;
10283;SDS011;5187;52.378;9.018;2022-10-31T06:25:28;21.07;;;14.97;;
10283;SDS011;5187;52.378;9.018;2022-10-31T06:27:56;21.73;;;17.53;;
10283;SDS011;5187;52.378;9.018;2022-10-31T06:30:25;20.57;;;18.23;;
10283;SDS011;5187;52.378;9.018;2022-10-31T06:32:53;64.10;;;19.27;;
10283;SDS011;5187;52.378;9.018;2022-10-31T06:35:23;90.70;;;18.97;;
10283;SDS011;5187;52.378;9.018;2022-10-31T06:37:52;82.87;;;21.40;;
10283;SDS011;5187;52.378;9.018;2022-10-31T06:40:20;164.60;;;25.13;;
10283;SDS011;5187;52.378;9.018;2022-10-31T06:42:55;151.50;;;25.60;;
10283;SDS011;5187;52.378;9.018;2022-10-31T06:45:24;56.50;;;24.63;;
10283;SDS011;5187;52.378;9.018;2022-10-31T06:47:53;57.83;;;26.17;;
10283;SDS011;5187;52.378;9.018;2022-10-31T06:50:43;59.10;;;26.30;;
10283;SDS011;5187;52.378;9.018;2022-10-31T06:53:11;57.67;;;26.27;;
10283;SDS011;5187;52.378;9.018;2022-10-31T06:55:40;51.10;;;26.70;;
10283;SDS011;5187;52.378;9.018;2022-10-31T06:58:09;42.20;;;25.83;;
10283;SDS011;5187;52.378;9.018;2022-10-31T07:00:38;40.50;;;26.60;;
10283;SDS011;5187;52.378;9.018;2022-10-31T07:03:08;35.50;;;26.17;;
10283;SDS011;5187;52.378;9.018;2022-10-31T07:05:37;38.30;;;26.13;;
10283;SDS011;5187;52.378;9.018;2022-10-31T07:08:08;34.30;;;26.00;;
10283;SDS011;5187;52.378;9.018;2022-10-31T07:10:38;29.93;;;24.87;;
10283;SDS011;5187;52.378;9.018;2022-10-31T07:13:08;29.87;;;24.63;;
10283;SDS011;5187;52.378;9.018;2022-10-31T07:15:38;35.27;;;25.43;;
10283;SDS011;5187;52.378;9.018;2022-10-31T07:18:08;28.37;;;23.50;;
10283;SDS011;5187;52.378;9.018;2022-10-31T07:20:37;38.20;;;25.57;;
10283;SDS011;5187;52.378;9.018;2022-10-31T07:23:05;31.97;;;25.00;;
10283;SDS011;5187;52.378;9.018;2022-10-31T07:25:36;30.90;;;23.90;;
10283;SDS011;5187;52.378;9.018;2022-10-31T07:28:05;29.07;;;23.63;;
10283;SDS011;5187;52.378;9.018;2022-10-31T07:30:34;29.20;;;24.97;;
10283;SDS011;5187;52.378;9.018;2022-10-31T07:33:04;29.97;;;24.23;;
10283;SDS011;5187;52.378;9.018;2022-10-31T07:35:37;29.27;;;24.43;;
10283;SDS011;5187;52.378;9.018;2022-10-31T07:38:09;31.27;;;25.03;;
10283;SDS011;5187;52.378;9.018;2022-10-31T07:40:39;30.00;;;24.50;;
10283;SDS011;5187;52.378;9.018;2022-10-31T07:43:07;30.70;;;24.13;;
10283;SDS011;5187;52.378;9.018;2022-10-31T07:45:40;35.40;;;27.33;;
10283;SDS011;5187;52.378;9.018;2022-10-31T07:48:08;34.33;;;27.10;;
10283;SDS011;5187;52.378;9.018;2022-10-31T07:50:37;39.73;;;29.17;;
10283;SDS011;5187;52.378;9.018;2022-10-31T07:53:07;36.47;;;27.60;;
10283;SDS011;5187;52.378;9.018;2022-10-31T07:55:36;33.13;;;26.70;;
10283;SDS011;5187;52.378;9.018;2022-10-31T07:58:07;36.00;;;28.33;;
10283;SDS011;5187;52.378;9.018;2022-10-31T08:00:38;35.10;;;28.13;;
10283;SDS011;5187;52.378;9.018;2022-10-31T08:03:07;37.37;;;28.97;;
10283;SDS011;5187;52.378;9.018;2022-10-31T08:05:36;38.07;;;28.73;;
10283;SDS011;5187;52.378;9.018;2022-10-31T08:08:06;36.07;;;28.33;;
10283;SDS011;5187;52.378;9.018;2022-10-31T08:10:35;34.90;;;28.07;;
10283;SDS011;5187;52.378;9.018;2022-10-31T08:13:05;39.70;;;28.77;;
10283;SDS011;5187;52.378;9.018;2022-10-31T08:15:35;36.13;;;28.50;;
10283;SDS011;5187;52.378;9.018;2022-10-31T08:18:06;34.70;;;27.27;;
10283;SDS011;5187;52.378;9.018;2022-10-31T08:20:34;34.60;;;27.77;;
10283;SDS011;5187;52.378;9.018;2022-10-31T08:23:04;36.83;;;28.97;;
10283;SDS011;5187;52.378;9.018;2022-10-31T08:25:33;35.57;;;27.83;;
10283;SDS011;5187;52.378;9.018;2022-10-31T08:28:04;36.23;;;27.37;;
10283;SDS011;5187;52.378;9.018;2022-10-31T08:30:33;34.67;;;26.87;;
10283;SDS011;5187;52.378;9.018;2022-10-31T08:33:04;35.37;;;27.13;;
10283;SDS011;5187;52.378;9.018;2022-10-31T08:35:33;34.60;;;27.33;;
10283;SDS011;5187;52.378;9.018;2022-10-31T08:38:01;34.40;;;27.50;;
10283;SDS011;5187;52.378;9.018;2022-10-31T08:40:31;34.77;;;27.40;;
10283;SDS011;5187;52.378;9.018;2022-10-31T08:43:00;37.73;;;26.90;;
10283;SDS011;5187;52.378;9.018;2022-10-31T08:45:29;35.73;;;25.87;;
10283;SDS011;5187;52.378;9.018;2022-10-31T08:47:58;35.07;;;26.33;;
10283;SDS011;5187;52.378;9.018;2022-10-31T08:50:29;33.63;;;26.27;;
10283;SDS011;5187;52.378;9.018;2022-10-31T08:53:01;29.77;;;24.77;;
10283;SDS011;5187;52.378;9.018;2022-10-31T08:55:32;36.00;;;28.03;;
10283;SDS011;5187;52.378;9.018;2022-10-31T08:58:01;38.47;;;27.93;;
10283;SDS011;5187;52.378;9.018;2022-10-31T09:00:30;35.30;;;26.90;;
10283;SDS011;5187;52.378;9.018;2022-10-31T09:02:59;33.50;;;27.60;;
10283;SDS011;5187;52.378;9.018;2022-10-31T09:05:29;33.20;;;26.27;;
10283;SDS011;5187;52.378;9.018;2022-10-31T09:07:59;34.40;;;26.83;;
10283;SDS011;5187;52.378;9.018;2022-10-31T09:10:29;31.80;;;25.77;;
10283;SDS011;5187;52.378;9.018;2022-10-31T09:12:58;40.83;;;26.83;;
10283;SDS011;5187;52.378;9.018;2022-10-31T09:15:27;33.10;;;26.20;;
10283;SDS011;5187;52.378;9.018;2022-10-31T09:17:55;34.20;;;26.80;;
10283;SDS011;5187;52.378;9.018;2022-10-31T09:20:24;32.30;;;25.30;;
10283;SDS011;5187;52.378;9.018;2022-10-31T09:22:57;34.37;;;27.33;;
10283;SDS011;5187;52.378;9.018;2022-10-31T09:25:26;31.80;;;26.03;;
10283;SDS011;5187;52.378;9.018;2022-10-31T09:27:55;33.60;;;26.40;;
10283;SDS011;5187;52.378;9.018;2022-10-31T09:30:26;30.63;;;25.33;;
10283;SDS011;5187;52.378;9.018;2022-10-31T09:32:55;29.17;;;24.63;;
10283;SDS011;5187;52.378;9.018;2022-10-31T09:35:24;30.73;;;23.80;;
10283;SDS011;5187;52.378;9.018;2022-10-31T09:37:55;29.85;;;23.80;;
10283;SDS011;5187;52.378;9.018;2022-10-31T09:40:27;28.55;;;22.58;;
10283;SDS011;5187;52.378;9.018;2022-10-31T09:42:59;30.52;;;21.83;;
10283;SDS011;5187;52.378;9.018;2022-10-31T09:45:32;25.23;;;21.05;;
10283;SDS011;5187;52.378;9.018;2022-10-31T09:48:08;26.35;;;20.48;;
10283;SDS011;5187;52.378;9.018;2022-10-31T09:50:41;24.70;;;20.77;;
10283;SDS011;5187;52.378;9.018;2022-10-31T09:53:15;30.73;;;20.52;;
10283;SDS011;5187;52.378;9.018;2022-10-31T09:55:47;24.02;;;19.73;;
10283;SDS011;5187;52.378;9.018;2022-10-31T09:58:18;23.15;;;19.80;;
10283;SDS011;5187;52.378;9.018;2022-10-31T10:00:47;24.63;;;19.75;;
10283;SDS011;5187;52.378;9.018;2022-10-31T10:03:20;22.67;;;18.50;;
10283;SDS011;5187;52.378;9.018;2022-10-31T10:05:54;24.52;;;19.23;;
10283;SDS011;5187;52.378;9.018;2022-10-31T10:08:26;22.02;;;19.10;;
10283;SDS011;5187;52.378;9.018;2022-10-31T10:10:58;22.92;;;19.73;;
10283;SDS011;5187;52.378;9.018;2022-10-31T10:13:33;25.65;;;19.38;;
10283;SDS011;5187;52.378;9.018;2022-10-31T10:18:52;23.00;;;18.80;;
10283;SDS011;5187;52.378;9.018;2022-10-31T10:21:26;23.17;;;18.38;;
10283;SDS011;5187;52.378;9.018;2022-10-31T10:24:00;23.10;;;18.83;;
10283;SDS011;5187;52.378;9.018;2022-10-31T10:26:34;24.75;;;17.80;;
10283;SDS011;5187;52.378;9.018;2022-10-31T10:29:08;22.13;;;17.65;;
10283;SDS011;5187;52.378;9.018;2022-10-31T10:31:40;20.83;;;17.50;;
10283;SDS011;5187;52.378;9.018;2022-10-31T10:34:11;20.33;;;16.92;;
10283;SDS011;5187;52.378;9.018;2022-10-31T10:36:44;22.38;;;17.38;;
10283;SDS011;5187;52.378;9.018;2022-10-31T10:39:15;26.08;;;17.38;;
10283;SDS011;5187;52.378;9.018;2022-10-31T10:41:47;21.10;;;16.10;;
10283;SDS011;5187;52.378;9.018;2022-10-31T10:44:30;18.17;;;15.02;;
10283;SDS011;5187;52.378;9.018;2022-10-31T10:47:16;19.70;;;14.95;;
10283;SDS011;5187;52.378;9.018;2022-10-31T10:50:02;20.35;;;15.40;;
10283;SDS011;5187;52.378;9.018;2022-10-31T10:52:36;18.00;;;14.05;;
10283;SDS011;5187;52.378;9.018;2022-10-31T10:55:14;19.13;;;14.23;;
10283;SDS011;5187;52.378;9.018;2022-10-31T10:57:49;17.55;;;14.35;;
10283;SDS011;5187;52.378;9.018;2022-10-31T11:00:21;19.65;;;14.55;;
10283;SDS011;5187;52.378;9.018;2022-10-31T11:02:50;20.45;;;15.27;;
10283;SDS011;5187;52.378;9.018;2022-10-31T11:05:22;20.83;;;13.85;;
10283;SDS011;5187;52.378;9.018;2022-10-31T11:07:51;20.17;;;14.55;;
10283;SDS011;5187;52.378;9.018;2022-10-31T11:10:19;16.63;;;14.68;;
10283;SDS011;5187;52.378;9.018;2022-10-31T11:13:00;21.65;;;14.45;;
10283;SDS011;5187;52.378;9.018;2022-10-31T11:15:30;17.52;;;14.82;;
10283;SDS011;5187;52.378;9.018;2022-10-31T11:17:59;22.77;;;15.00;;
10283;SDS011;5187;52.378;9.018;2022-10-31T11:20:31;18.73;;;14.35;;
10283;SDS011;5187;52.378;9.018;2022-10-31T11:23:04;19.40;;;15.00;;
10283;SDS011;5187;52.378;9.018;2022-10-31T11:25:34;20.08;;;14.27;;
10283;SDS011;5187;52.378;9.018;2022-10-31T11:28:05;15.45;;;13.65;;
10283;SDS011;5187;52.378;9.018;2022-10-31T11:30:35;19.52;;;14.35;;
10283;SDS011;5187;52.378;9.018;2022-10-31T11:33:11;18.48;;;14.07;;
10283;SDS011;5187;52.378;9.018;2022-10-31T11:35:41;16.27;;;13.35;;
10283;SDS011;5187;52.378;9.018;2022-10-31T11:38:12;15.55;;;13.20;;
10283;SDS011;5187;52.378;9.018;2022-10-31T11:40:50;18.40;;;13.95;;
10283;SDS011;5187;52.378;9.018;2022-10-31T11:43:20;17.95;;;13.23;;
10283;SDS011;5187;52.378;9.018;2022-10-31T11:45:49;16.35;;;13.20;;
10283;SDS011;5187;52.378;9.018;2022-10-31T11:48:19;16.13;;;12.98;;
10283;SDS011;5187;52.378;9.018;2022-10-31T11:50:50;18.85;;;12.80;;
10283;SDS011;5187;52.378;9.018;2022-10-31T11:53:19;16.05;;;13.63;;
10283;SDS011;5187;52.378;9.018;2022-10-31T11:55:50;14.00;;;12.50;;
10283;SDS011;5187;52.378;9.018;2022-10-31T11:58:29;18.45;;;13.43;;
10283;SDS011;5187;52.378;9.018;2022-10-31T12:00:58;15.13;;;12.45;;
10283;SDS011;5187;52.378;9.018;2022-10-31T12:03:27;21.15;;;12.30;;
10283;SDS011;5187;52.378;9.018;2022-10-31T12:06:00;15.27;;;12.35;;
10283;SDS011;5187;52.378;9.018;2022-10-31T12:08:29;16.92;;;11.90;;
10283;SDS011;5187;52.378;9.018;2022-10-31T12:11:00;13.98;;;11.43;;
10283;SDS011;5187;52.378;9.018;2022-10-31T12:13:34;15.00;;;12.10;;
10283;SDS011;5187;52.378;9.018;2022-10-31T12:16:07;17.08;;;11.93;;
10283;SDS011;5187;52.378;9.018;2022-10-31T12:18:55;15.85;;;12.10;;
10283;SDS011;5187;52.378;9.018;2022-10-31T12:21:28;17.02;;;12.32;;
10283;SDS011;5187;52.378;9.018;2022-10-31T12:24:05;19.95;;;12.82;;
10283;SDS011;5187;52.378;9.018;2022-10-31T12:26:37;16.75;;;11.77;;
10283;SDS011;5187;52.378;9.018;2022-10-31T12:29:13;13.40;;;11.07;;
10283;SDS011;5187;52.378;9.018;2022-10-31T12:31:49;14.73;;;10.90;;
10283;SDS011;5187;52.378;9.018;2022-10-31T12:37:15;16.58;;;11.70;;
10283;SDS011;5187;52.378;9.018;2022-10-31T12:39:49;15.63;;;11.27;;
10283;SDS011;5187;52.378;9.018;2022-10-31T12:42:22;16.50;;;11.85;;
10283;SDS011;5187;52.378;9.018;2022-10-31T12:45:02;16.08;;;11.10;;
10283;SDS011;5187;52.378;9.018;2022-10-31T12:47:40;14.23;;;11.38;;
10283;SDS011;5187;52.378;9.018;2022-10-31T12:50:20;14.80;;;11.35;;
10283;SDS011;5187;52.378;9.018;2022-10-31T12:52:54;15.95;;;11.75;;
10283;SDS011;5187;52.378;9.018;2022-10-31T12:55:30;14.00;;;11.18;;
10283;SDS011;5187;52.378;9.018;2022-10-31T12:58:00;17.17;;;11.75;;
10283;SDS011;5187;52.378;9.018;2022-10-31T13:00:32;16.02;;;11.45;;
10283;SDS011;5187;52.378;9.018;2022-10-31T13:03:08;18.33;;;11.20;;
10283;SDS011;5187;52.378;9.018;2022-10-31T13:05:43;15.23;;;10.27;;
10283;SDS011;5187;52.378;9.018;2022-10-31T13:08:14;13.60;;;9.45;;
10283;SDS011;5187;52.378;9.018;2022-10-31T13:10:44;15.38;;;9.30;;
10283;SDS011;5187;52.378;9.018;2022-10-31T13:13:15;14.38;;;9.70;;
10283;SDS011;5187;52.378;9.018;2022-10-31T13:15:47;12.75;;;9.52;;
10283;SDS011;5187;52.378;9.018;2022-10-31T13:18:19;12.70;;;8.95;;
10283;SDS011;5187;52.378;9.018;2022-10-31T13:20:49;12.98;;;9.07;;
10283;SDS011;5187;52.378;9.018;2022-10-31T13:23:22;13.10;;;9.25;;
10283;SDS011;5187;52.378;9.018;2022-10-31T13:26:12;14.50;;;9.15;;
10283;SDS011;5187;52.378;9.018;2022-10-31T13:28:43;13.82;;;9.80;;
10283;SDS011;5187;52.378;9.018;2022-10-31T13:31:13;17.95;;;9.70;;
10283;SDS011;5187;52.378;9.018;2022-10-31T13:33:43;14.13;;;10.13;;
10283;SDS011;5187;52.378;9.018;2022-10-31T13:36:15;16.77;;;10.48;;
10283;SDS011;5187;52.378;9.018;2022-10-31T13:38:48;14.43;;;9.73;;
10283;SDS011;5187;52.378;9.018;2022-10-31T13:41:21;13.82;;;10.45;;
10283;SDS011;5187;52.378;9.018;2022-10-31T13:43:56;17.30;;;10.55;;
10283;SDS011;5187;52.378;9.018;2022-10-31T13:46:35;16.98;;;10.75;;
10283;SDS011;5187;52.378;9.018;2022-10-31T13:49:04;17.33;;;10.48;;
10283;SDS011;5187;52.378;9.018;2022-10-31T13:51:49;14.23;;;10.40;;
10283;SDS011;5187;52.378;9.018;2022-10-31T13:54:20;15.82;;;10.55;;
10283;SDS011;5187;52.378;9.018;2022-10-31T13:56:49;14.38;;;10.10;;
10283;SDS011;5187;52.378;9.018;2022-10-31T13:59:19;16.77;;;10.20;;
10283;SDS011;5187;52.378;9.018;2022-10-31T14:01:51;16.40;;;10.20;;
10283;SDS011;5187;52.378;9.018;2022-10-31T14:04:22;15.85;;;10.40;;
10283;SDS011;5187;52.378;9.018;2022-10-31T14:06:53;21.08;;;12.50;;
10283;SDS011;5187;52.378;9.018;2022-10-31T14:09:26;18.60;;;11.52;;
10283;SDS011;5187;52.378;9.018;2022-10-31T14:11:56;18.90;;;10.40;;
10283;SDS011;5187;52.378;9.018;2022-10-31T14:14:28;32.15;;;17.38;;
10283;SDS011;5187;52.378;9.018;2022-10-31T14:16:59;15.70;;;10.93;;
10283;SDS011;5187;52.378;9.018;2022-10-31T14:19:28;33.92;;;16.50;;
10283;SDS011;5187;52.378;9.018;2022-10-31T14:21:56;22.38;;;12.10;;
10283;SDS011;5187;52.378;9.018;2022-10-31T14:24:33;17.58;;;10.75;;
10283;SDS011;5187;52.378;9.018;2022-10-31T14:27:04;20.50;;;12.27;;
10283;SDS011;5187;52.378;9.018;2022-10-31T14:29:33;18.58;;;11.52;;
10283;SDS011;5187;52.378;9.018;2022-10-31T14:32:06;19.60;;;12.43;;
10283;SDS011;5187;52.378;9.018;2022-10-31T14:34:37;19.42;;;12.05;;
10283;SDS011;5187;52.378;9.018;2022-10-31T14:37:11;18.35;;;11.73;;
10283;SDS011;5187;52.378;9.018;2022-10-31T14:39:45;17.90;;;11.32;;
10283;SDS011;5187;52.378;9.018;2022-10-31T14:42:19;18.15;;;11.98;;
10283;SDS011;5187;52.378;9.018;2022-10-31T14:44:54;18.48;;;11.77;;
10283;SDS011;5187;52.378;9.018;2022-10-31T14:47:28;19.63;;;12.07;;
10283;SDS011;5187;52.378;9.018;2022-10-31T14:50:10;21.60;;;11.68;;
10283;SDS011;5187;52.378;9.018;2022-10-31T14:52:41;16.15;;;11.35;;
10283;SDS011;5187;52.378;9.018;2022-10-31T14:55:13;16.77;;;11.07;;
10283;SDS011;5187;52.378;9.018;2022-10-31T14:57:43;18.17;;;11.32;;
10283;SDS011;5187;52.378;9.018;2022-10-31T15:00:16;17.33;;;11.25;;
10283;SDS011;5187;52.378;9.018;2022-10-31T15:02:49;17.38;;;11.13;;
10283;SDS011;5187;52.378;9.018;2022-10-31T15:05:19;15.02;;;11.02;;
10283;SDS011;5187;52.378;9.018;2022-10-31T15:07:48;21.30;;;12.55;;
10283;SDS011;5187;52.378;9.018;2022-10-31T15:10:20;21.98;;;13.13;;
10283;SDS011;5187;52.378;9.018;2022-10-31T15:12:49;19.73;;;13.38;;
10283;SDS011;5187;52.378;9.018;2022-10-31T15:15:19;18.35;;;12.90;;